Minerva Astra — 9HDW7 — position and weather

sailwx.info

Track history (hours):
 
Tides and Currents Weather Stations Pressure Air Temp Water Temp Dewpoint Dewpoint Depression Visibility Wind Speed Wind Dir Waves Ship Positions

Minerva Astra

Last reported at 2016-Sep-26 13:03 UTC. Time now 2016-Sep-26 17:21 UTC.
Position N 51°54' E 003°29'.

Length 248 m; draft 12.6 m.

Type: Tanker. MMSI: 256703000.

Date/timePositionNaut miles runAvg speedWind from/ knotsBaromVisibWave heightAir tempDewpointWater temp
2016-Sep-26 13:03N 51°54' E 003°29'0 0.0
2016-Sep-25 21:17N 51°54' E 003°29'0 0.0
2016-Sep-25 12:11N 51°54' E 003°29'0 0.0
2016-Sep-25 11:11N 51°54' E 003°29'0 0.0
2016-Sep-25 07:32N 51°54' E 003°29'22 7.5
2016-Sep-25 04:33N 51°49' E 002°54'4411.0
2016-Sep-25 00:34N 51°16' E 002°07'2311.7
2016-Sep-24 22:33N 51°02' E 001°37'1312.9
2016-Sep-24 21:33N 50°51' E 001°27'3812.2
2016-Sep-24 18:28N 50°27' E 000°41'1212.9
2016-Sep-24 17:33N 50°24' E 000°23'1313.3
2016-Sep-24 16:33N 50°21' E 000°03'2814.2
2016-Sep-24 14:33N 50°13' W 000°40'3014.9
2016-Sep-24 12:33N 50°05' W 001°24'2914.0
2016-Sep-24 10:30N 49°58' W 002°08'1412.5
2016-Sep-24 09:22N 49°54' W 002°29'7012.0
2016-Sep-24 03:33N 49°34' W 004°13'1312.5
2016-Sep-24 02:33N 49°31' W 004°31'1312.7
2016-Sep-24 01:33N 49°27' W 004°50'1512.8
2016-Sep-24 00:24N 49°22' W 005°11'  
Track history (hours):
 
Tides and Currents Weather Stations Pressure Air Temp Water Temp Dewpoint Dewpoint Depression Visibility Wind Speed Wind Dir Waves Ship Positions

Minerva Astra

Last reported at 2016-Sep-26 13:03 UTC. Time now 2016-Sep-26 17:21 UTC.
Position N 51°54' E 003°29'.

Length 248 m; draft 12.6 m.

Type: Tanker. MMSI: 256703000.

Date/timePositionNaut miles runAvg speedWind from/ knotsBaromVisibWave heightAir tempDewpointWater temp
2016-Sep-26 13:03N 51°54' E 003°29'0 0.0
2016-Sep-25 21:17N 51°54' E 003°29'0 0.0
2016-Sep-25 12:11N 51°54' E 003°29'0 0.0
2016-Sep-25 11:11N 51°54' E 003°29'0 0.0
2016-Sep-25 07:32N 51°54' E 003°29'22 7.5
2016-Sep-25 04:33N 51°49' E 002°54'4411.0
2016-Sep-25 00:34N 51°16' E 002°07'2311.7
2016-Sep-24 22:33N 51°02' E 001°37'1312.9
2016-Sep-24 21:33N 50°51' E 001°27'3812.2
2016-Sep-24 18:28N 50°27' E 000°41'1212.9
2016-Sep-24 17:33N 50°24' E 000°23'1313.3
2016-Sep-24 16:33N 50°21' E 000°03'2814.2
2016-Sep-24 14:33N 50°13' W 000°40'3014.9
2016-Sep-24 12:33N 50°05' W 001°24'2914.0
2016-Sep-24 10:30N 49°58' W 002°08'1412.5
2016-Sep-24 09:22N 49°54' W 002°29'7012.0
2016-Sep-24 03:33N 49°34' W 004°13'1312.5
2016-Sep-24 02:33N 49°31' W 004°31'1312.7
2016-Sep-24 01:33N 49°27' W 004°50'1512.8
2016-Sep-24 00:24N 49°22' W 005°11'  

Dump ship's entire track history